createdAt,value
2018-11-20T00:01:44.872Z,100192.44
2018-11-20T00:04:34.240Z,100203.20
2018-11-20T00:07:23.495Z,100202.89
2018-11-20T00:10:12.767Z,100193.76
2018-11-20T00:12:59.402Z,100189.24
2018-11-20T00:15:48.761Z,100196.39
2018-11-20T00:18:56.869Z,100183.69
2018-11-20T00:21:36.034Z,100179.23
2018-11-20T00:24:25.523Z,100183.37
2018-11-20T00:27:14.798Z,100179.23
2018-11-20T00:30:04.077Z,100170.39
2018-11-20T00:32:53.340Z,100185.08
2018-11-20T00:35:42.582Z,100178.09
2018-11-20T00:38:31.875Z,100161.33
2018-11-20T00:41:21.128Z,100163.41
2018-11-20T00:44:10.427Z,100167.36
2018-11-20T00:46:59.768Z,100160.66
2018-11-20T00:49:49.081Z,100167.71
2018-11-20T00:52:38.323Z,100177.16
2018-11-20T00:56:05.472Z,100168.20
2018-11-20T00:58:54.802Z,100157.53
2018-11-20T01:01:44.088Z,100165.83
2018-11-20T01:04:33.338Z,100163.75
2018-11-20T01:07:22.709Z,100152.53
2018-11-20T01:10:11.939Z,100152.15
2018-11-20T01:13:01.242Z,100157.91
2018-11-20T01:15:50.476Z,100145.28
2018-11-20T01:18:39.756Z,100156.37
2018-11-20T01:21:28.999Z,100164.35
2018-11-20T01:24:09.536Z,100143.73
2018-11-20T01:26:58.879Z,100141.59
2018-11-20T01:29:48.159Z,100131.20
2018-11-20T01:32:37.404Z,100127.67
2018-11-20T01:35:26.691Z,100123.34
2018-11-20T01:46:53.427Z,100097.94
2018-11-20T01:49:35.292Z,100090.59
2018-11-20T01:52:24.670Z,100088.23
2018-11-20T01:55:13.973Z,100091.74
2018-11-20T01:58:03.212Z,100077.61
2018-11-20T02:03:34.585Z,100064.42
2018-11-20T02:06:23.842Z,100057.45
2018-11-20T02:09:13.183Z,100062.94
2018-11-20T02:17:28.980Z,100033.17
2018-11-20T02:20:18.236Z,100036.64
2018-11-20T02:25:49.451Z,100038.45
2018-11-20T02:28:31.592Z,100037.80
2018-11-20T02:31:20.833Z,100019.16
2018-11-20T02:34:29.374Z,100017.73
2018-11-20T02:37:18.620Z,100035.81
2018-11-20T02:40:08.328Z,100029.78
2018-11-20T02:42:44.175Z,100037.51
2018-11-20T02:45:33.461Z,100031.38
2018-11-20T02:48:22.724Z,100035.44
2018-11-20T02:53:53.468Z,100034.60
2018-11-20T02:56:42.721Z,100034.11
2018-11-20T02:59:32.081Z,100024.99
2018-11-20T03:02:21.321Z,100016.59
2018-11-20T03:05:10.603Z,100018.40
2018-11-20T03:07:59.987Z,100008.88
2018-11-20T03:10:49.270Z,99999.83
2018-11-20T03:13:38.643Z,100010.27
2018-11-20T03:16:27.919Z,99998.95
2018-11-20T03:19:17.165Z,100006.86
2018-11-20T03:22:06.440Z,100021.74
2018-11-20T03:24:55.681Z,99994.32
2018-11-20T03:27:44.955Z,100005.63
2018-11-20T03:31:11.999Z,99988.83
2018-11-20T03:34:02.987Z,99992.17
2018-11-20T03:36:52.236Z,100002.50
2018-11-20T03:39:41.512Z,100002.50
2018-11-20T03:42:30.857Z,100000.35
2018-11-20T03:45:20.132Z,99990.52
2018-11-20T03:48:09.503Z,99992.44
2018-11-20T03:50:58.868Z,100012.56
2018-11-20T03:53:48.213Z,100003.82
2018-11-20T03:56:37.527Z,99995.34
2018-11-20T03:59:26.793Z,100003.60
2018-11-20T04:02:16.199Z,100002.02
2018-11-20T04:05:05.585Z,99999.91
2018-11-20T04:07:55.435Z,100013.70
2018-11-20T04:10:44.674Z,100001.56
2018-11-20T04:13:33.958Z,99997.23
2018-11-20T04:16:23.210Z,99987.56
2018-11-20T04:19:12.578Z,99992.95
2018-11-20T04:22:01.913Z,100002.74
2018-11-20T04:24:51.219Z,99994.94
2018-11-20T04:27:40.461Z,100002.95
2018-11-20T04:31:07.531Z,99998.06
2018-11-20T04:33:58.147Z,100007.36
2018-11-20T04:36:50.522Z,99988.19
2018-11-20T04:39:39.806Z,99993.91
2018-11-20T04:42:29.219Z,99988.19
2018-11-20T04:45:18.583Z,99989.45
2018-11-20T04:48:07.988Z,99985.37
2018-11-20T04:50:57.230Z,99996.81
2018-11-20T04:53:46.608Z,99982.27
2018-11-20T04:56:35.951Z,99982.47
2018-11-20T04:59:17.625Z,99992.75
2018-11-20T05:02:06.870Z,99979.75
2018-11-20T05:04:56.155Z,99970.34
2018-11-20T05:07:45.412Z,99967.89
2018-11-20T05:10:34.691Z,99976.39
2018-11-20T05:13:24.223Z,99976.45
2018-11-20T05:16:13.535Z,99988.52
2018-11-20T05:19:02.775Z,99988.91
2018-11-20T05:21:52.043Z,99989.62
2018-11-20T05:24:41.282Z,99992.48
2018-11-20T05:27:30.551Z,100003.41
2018-11-20T05:30:19.893Z,100016.94
2018-11-20T05:33:09.161Z,100013.47
2018-11-20T05:35:58.409Z,100005.06
2018-11-20T05:38:47.685Z,100010.45
2018-11-20T05:41:36.935Z,100015.34
2018-11-20T05:44:26.243Z,100019.67
2018-11-20T05:47:15.505Z,100017.25
2018-11-20T05:50:04.795Z,100013.90
2018-11-20T05:52:54.141Z,100030.83
2018-11-20T05:55:43.535Z,100015.01
2018-11-20T05:58:32.883Z,100007.97
2018-11-20T06:01:22.374Z,100010.16
2018-11-20T06:04:11.648Z,100012.41
2018-11-20T06:07:00.926Z,100002.81
2018-11-20T06:09:50.268Z,100000.17
2018-11-20T06:15:21.130Z,100000.00
2018-11-20T06:18:10.438Z,99998.41
2018-11-20T06:20:59.777Z,100002.84
2018-11-20T06:23:49.064Z,100009.23
2018-11-20T06:26:38.316Z,100004.62
2018-11-20T06:29:27.609Z,100003.69
2018-11-20T06:32:16.866Z,99996.92
2018-11-20T06:37:48.322Z,100001.16
2018-11-20T06:40:37.572Z,100000.23
2018-11-20T06:43:26.856Z,100003.25
2018-11-20T06:46:16.314Z,100007.47
2018-11-20T06:49:05.595Z,100009.06
2018-11-20T06:51:54.850Z,100022.83
2018-11-20T06:57:29.426Z,100011.73
2018-11-20T07:00:18.555Z,100006.64
2018-11-20T07:03:07.799Z,100003.83
2018-11-20T07:05:57.165Z,99993.47
2018-11-20T07:08:46.518Z,99985.39
2018-11-20T07:11:35.719Z,99984.45
2018-11-20T07:14:45.483Z,99976.73
2018-11-20T07:17:38.038Z,99985.49
2018-11-20T07:20:27.554Z,99979.08
2018-11-20T07:23:16.827Z,99968.38
2018-11-20T07:26:06.084Z,99951.97
2018-11-20T07:28:55.351Z,99944.55
2018-11-20T07:34:59.709Z,99930.24
2018-11-20T07:37:48.778Z,99927.27
2018-11-20T07:40:38.141Z,99937.03
2018-11-20T07:43:27.440Z,99931.92
2018-11-20T07:46:06.916Z,99945.55
2018-11-20T07:48:56.158Z,99941.98
2018-11-20T07:54:27.386Z,99962.19
2018-11-20T07:57:16.663Z,99957.23
2018-11-20T08:00:05.960Z,99964.27
2018-11-20T08:02:55.228Z,99951.75
2018-11-20T08:06:03.496Z,99954.28
2018-11-20T08:08:52.874Z,99952.30
2018-11-20T08:11:42.063Z,99955.03
2018-11-20T08:14:31.439Z,99961.14
2018-11-20T08:17:10.887Z,99950.14
2018-11-20T08:20:00.175Z,99947.69
2018-11-20T08:22:49.416Z,99952.78
2018-11-20T08:28:20.730Z,99941.48
2018-11-20T08:31:10.091Z,99945.05
2018-11-20T08:33:59.273Z,99936.59
2018-11-20T08:36:42.442Z,99941.59
2018-11-20T08:39:31.150Z,99940.65
2018-11-20T08:42:20.497Z,99938.30
2018-11-20T08:48:24.187Z,99930.29
2018-11-20T08:51:13.359Z,99927.77
2018-11-20T08:54:02.649Z,99930.29
2018-11-20T08:56:51.987Z,99927.55
2018-11-20T08:59:41.273Z,99932.80
2018-11-20T09:02:30.553Z,99941.36
2018-11-20T09:05:20.126Z,99936.65
2018-11-20T09:08:09.451Z,99928.91
2018-11-20T09:10:58.733Z,99933.61
2018-11-20T09:13:48.090Z,99948.67
2018-11-20T09:16:37.389Z,99935.50
2018-11-20T09:19:26.766Z,99932.02
2018-11-20T09:22:16.595Z,99933.45
2018-11-20T09:25:05.830Z,99927.91
2018-11-20T09:27:55.148Z,99919.41
2018-11-20T09:30:44.453Z,99925.34
2018-11-20T09:33:33.749Z,99922.98
2018-11-20T09:36:23.186Z,99928.52
2018-11-20T09:39:12.476Z,99920.59
2018-11-20T09:41:50.594Z,99919.39
2018-11-20T09:45:14.706Z,99929.93
2018-11-20T09:47:55.001Z,99928.91
2018-11-20T09:50:44.278Z,99919.95
2018-11-20T09:53:33.530Z,99921.48
2018-11-20T09:56:23.174Z,99912.88
2018-11-20T09:59:05.214Z,99910.45
2018-11-20T10:01:54.492Z,99911.31
2018-11-20T10:04:43.814Z,99904.73
2018-11-20T10:07:33.217Z,99901.13
2018-11-20T10:10:22.559Z,99881.35
2018-11-20T10:13:11.878Z,99884.69
2018-11-20T10:16:01.171Z,99875.52
2018-11-20T10:18:50.437Z,99875.97
2018-11-20T10:21:39.799Z,99872.77
2018-11-20T10:24:28.973Z,99870.97
2018-11-20T10:27:09.712Z,99865.35
2018-11-20T10:29:59.133Z,99856.66
2018-11-20T10:32:48.368Z,99850.63
2018-11-20T10:35:37.759Z,99849.16
2018-11-20T10:38:26.907Z,99850.48
2018-11-20T10:43:58.243Z,99857.87
2018-11-20T10:46:47.608Z,99842.77
2018-11-20T10:49:36.804Z,99846.84
2018-11-20T10:52:26.328Z,99843.64
2018-11-20T10:55:15.500Z,99851.55
2018-11-20T10:58:04.743Z,99848.20
2018-11-20T11:00:54.036Z,99834.83
2018-11-20T11:03:43.362Z,99843.19
2018-11-20T11:06:33.454Z,99836.26
2018-11-20T11:09:22.568Z,99825.48
2018-11-20T11:12:12.039Z,99819.53
2018-11-20T11:15:01.399Z,99823.00
2018-11-20T11:17:50.688Z,99821.84
2018-11-20T11:20:33.723Z,99802.28
2018-11-20T11:23:12.325Z,99824.02
2018-11-20T11:26:01.651Z,99827.38
2018-11-20T11:28:51.436Z,99830.65
2018-11-20T11:31:40.270Z,99835.77
2018-11-20T11:34:29.555Z,99825.37
2018-11-20T11:37:18.804Z,99819.08
2018-11-20T11:40:08.124Z,99818.25
2018-11-20T11:42:57.452Z,99812.34
2018-11-20T11:45:46.849Z,99809.92
2018-11-20T11:48:36.101Z,99809.92
2018-11-20T11:51:25.622Z,99803.53
2018-11-20T11:57:29.147Z,99805.63
2018-11-20T12:00:18.494Z,99789.69
2018-11-20T12:05:49.416Z,99786.23
2018-11-20T12:08:38.656Z,99785.13
2018-11-20T12:11:28.096Z,99781.89
2018-11-20T12:14:17.336Z,99792.33
2018-11-20T12:17:06.611Z,99781.92
2018-11-20T12:19:55.904Z,99786.14
2018-11-20T12:22:45.296Z,99783.09
2018-11-20T12:25:34.534Z,99762.11
2018-11-20T12:31:05.267Z,99765.76
2018-11-20T12:33:54.860Z,99764.49
2018-11-20T12:36:44.141Z,99757.47
2018-11-20T12:42:48.308Z,99767.22
2018-11-20T12:45:37.705Z,99751.25
2018-11-20T12:48:27.083Z,99736.77
2018-11-20T12:51:16.338Z,99745.00
2018-11-20T12:54:06.446Z,99744.80
2018-11-20T12:56:55.690Z,99751.52
2018-11-20T12:59:45.114Z,99746.12
2018-11-20T13:02:34.366Z,99746.38
2018-11-20T13:05:24.335Z,99739.38
2018-11-20T13:08:13.656Z,99741.91
2018-11-20T13:11:02.930Z,99744.55
2018-11-20T13:14:03.955Z,99744.05
2018-11-20T13:16:53.258Z,99734.11
2018-11-20T13:19:42.604Z,99733.48
2018-11-20T13:22:33.557Z,99741.79
2018-11-20T13:25:21.124Z,99739.01
2018-11-20T13:28:10.421Z,99738.78
2018-11-20T13:30:59.659Z,99740.56
2018-11-20T13:33:49.715Z,99731.09
2018-11-20T13:36:38.286Z,99726.52
2018-11-20T13:39:47.858Z,99724.50
2018-11-20T13:42:39.732Z,99725.94
2018-11-20T13:45:29.028Z,99717.97
2018-11-20T13:48:18.268Z,99718.80
2018-11-20T13:51:07.555Z,99715.64
2018-11-20T13:53:56.799Z,99715.33
2018-11-20T13:56:46.076Z,99709.11
2018-11-20T13:59:35.320Z,99708.02
2018-11-20T14:02:24.759Z,99706.47
2018-11-20T14:05:13.996Z,99711.69
2018-11-20T14:08:04.620Z,99701.48
2018-11-20T14:10:53.930Z,99695.50
2018-11-20T14:13:43.305Z,99690.59
2018-11-20T14:16:32.539Z,99694.20
2018-11-20T14:19:21.829Z,99685.09
2018-11-20T14:22:11.125Z,99684.15
2018-11-20T14:25:01.565Z,99678.88
2018-11-20T14:27:50.800Z,99687.09
2018-11-20T14:30:40.180Z,99685.64
2018-11-20T14:33:29.869Z,99676.44
2018-11-20T14:36:19.319Z,99689.70
2018-11-20T14:39:08.555Z,99700.20
2018-11-20T14:41:57.933Z,99697.99
2018-11-20T14:44:47.224Z,99705.67
2018-11-20T14:47:36.508Z,99710.34
2018-11-20T14:50:26.929Z,99707.70
2018-11-20T14:53:16.325Z,99706.69
2018-11-20T14:56:05.608Z,99708.23
2018-11-20T14:58:54.867Z,99695.05
2018-11-20T15:01:44.116Z,99698.78
2018-11-20T15:04:33.429Z,99695.77
2018-11-20T15:07:22.629Z,99690.77
2018-11-20T15:10:11.966Z,99696.45
2018-11-20T15:13:01.214Z,99684.88
2018-11-20T15:15:50.511Z,99691.96
2018-11-20T15:18:44.048Z,99686.95
2018-11-20T15:21:29.040Z,99685.41
2018-11-20T15:24:18.369Z,99668.27
2018-11-20T15:27:07.788Z,99674.83
2018-11-20T15:29:57.031Z,99673.44
2018-11-20T15:32:46.315Z,99679.02
2018-11-20T15:35:35.554Z,99684.86
2018-11-20T15:41:38.936Z,99682.79
2018-11-20T15:44:28.226Z,99696.79
2018-11-20T15:47:17.469Z,99699.84
2018-11-20T15:50:06.775Z,99702.70
2018-11-20T15:52:47.763Z,99698.22
2018-11-20T15:55:37.048Z,99701.91
2018-11-20T15:58:26.293Z,99699.34
2018-11-20T16:03:56.973Z,99715.66
2018-11-20T16:06:46.240Z,99713.47
2018-11-20T16:12:17.656Z,99725.05
2018-11-20T16:15:06.909Z,99732.02
2018-11-20T16:17:57.171Z,99727.80
2018-11-20T16:20:46.408Z,99737.88
2018-11-20T16:23:35.784Z,99727.08
2018-11-20T16:26:25.096Z,99736.96
2018-11-20T16:29:14.464Z,99740.40
2018-11-20T16:32:03.713Z,99746.23
2018-11-20T16:34:53.018Z,99735.53
2018-11-20T16:37:42.257Z,99726.65
2018-11-20T16:40:31.542Z,99725.49
2018-11-20T16:43:20.788Z,99724.28
2018-11-20T16:46:21.264Z,99726.37
2018-11-20T16:49:10.507Z,99724.20
2018-11-20T16:51:59.792Z,99737.47
2018-11-20T16:54:49.065Z,99741.04
2018-11-20T16:57:38.377Z,99748.94
2018-11-20T17:00:28.688Z,99750.42
2018-11-20T17:03:18.032Z,99752.72
2018-11-20T17:06:07.279Z,99756.40
2018-11-20T17:12:32.601Z,99754.04
2018-11-20T17:15:21.888Z,99762.31
2018-11-20T17:18:03.116Z,99761.21
2018-11-20T17:20:52.442Z,99754.04
2018-11-20T17:23:41.688Z,99758.26
2018-11-20T17:26:31.009Z,99744.94
2018-11-20T17:29:20.255Z,99743.05
2018-11-20T17:32:09.648Z,99751.78
2018-11-20T17:34:58.904Z,99731.29
2018-11-20T17:37:48.218Z,99735.45
2018-11-20T17:40:37.797Z,99735.08
2018-11-20T17:43:27.417Z,99730.56
2018-11-20T17:46:16.763Z,99716.47
2018-11-20T17:49:06.207Z,99725.67
2018-11-20T17:52:02.866Z,99725.67
2018-11-20T17:55:11.018Z,99740.98
2018-11-20T17:57:57.235Z,99736.55
2018-11-20T18:00:44.837Z,99748.78
2018-11-20T18:03:34.086Z,99759.30
2018-11-20T18:06:23.380Z,99773.67
2018-11-20T18:09:12.756Z,99780.63
2018-11-20T18:12:02.271Z,99788.53
2018-11-20T18:14:51.638Z,99786.00
2018-11-20T18:17:41.355Z,99801.80
2018-11-20T18:23:44.793Z,99804.54
2018-11-20T18:26:34.045Z,99797.95
2018-11-20T18:29:23.343Z,99797.95
2018-11-20T18:32:12.577Z,99802.19
2018-11-20T18:35:01.857Z,99810.57
2018-11-20T18:37:57.068Z,99809.15
2018-11-20T18:40:58.584Z,99808.77
2018-11-20T18:43:58.318Z,99802.78
2018-11-20T18:46:46.042Z,99804.27
2018-11-20T18:49:33.194Z,99803.82
2018-11-20T18:52:26.756Z,99801.57
2018-11-20T18:55:19.059Z,99807.50
2018-11-20T18:58:20.275Z,99810.51
2018-11-20T19:01:07.963Z,99814.08
2018-11-20T19:04:09.262Z,99816.60
2018-11-20T19:07:08.383Z,99818.19
2018-11-20T19:10:09.419Z,99811.17
2018-11-20T19:13:16.517Z,99818.85
2018-11-20T19:16:11.595Z,99804.66
2018-11-20T19:19:04.637Z,99803.72
2018-11-20T19:22:00.888Z,99798.83
2018-11-20T19:24:48.900Z,99812.17
2018-11-20T19:27:53.464Z,99805.42
2018-11-20T19:30:45.656Z,99809.53
2018-11-20T19:33:33.703Z,99798.28
2018-11-20T19:36:21.588Z,99805.59
2018-11-20T19:39:17.073Z,99801.47
2018-11-20T19:42:06.318Z,99801.64
2018-11-20T19:44:54.227Z,99794.23
2018-11-20T19:47:41.848Z,99808.50
2018-11-20T19:50:37.451Z,99804.38
2018-11-20T19:53:29.553Z,99811.41
2018-11-20T19:56:30.888Z,99809.36
2018-11-20T19:59:18.406Z,99803.50
2018-11-20T20:02:16.715Z,99816.38
2018-11-20T20:05:04.322Z,99812.61
2018-11-20T20:08:05.693Z,99811.30
2018-11-20T20:11:00.697Z,99827.36
2018-11-20T20:13:50.037Z,99827.30
2018-11-20T20:16:38.302Z,99825.70
2018-11-20T20:19:27.779Z,99830.20
2018-11-20T20:22:15.733Z,99837.06
2018-11-20T20:25:03.392Z,99837.44
2018-11-20T20:27:51.010Z,99836.78
2018-11-20T20:30:38.641Z,99837.89
2018-11-20T20:33:26.628Z,99833.39
2018-11-20T20:36:15.978Z,99841.67
2018-11-20T20:39:03.896Z,99851.58
2018-11-20T20:42:05.551Z,99849.95
2018-11-20T20:44:53.620Z,99856.46
2018-11-20T20:47:44.557Z,99870.34
2018-11-20T20:50:32.199Z,99878.63
2018-11-20T20:53:27.446Z,99881.25
2018-11-20T20:56:15.250Z,99884.38
2018-11-20T20:59:00.389Z,99885.69
2018-11-20T21:01:47.944Z,99889.05
2018-11-20T21:04:46.718Z,99895.25
2018-11-20T21:07:43.334Z,99907.92
2018-11-20T21:10:31.576Z,99906.54
2018-11-20T21:13:19.037Z,99915.75
2018-11-20T21:16:08.366Z,99914.98
2018-11-20T21:19:12.761Z,99919.95
2018-11-20T21:22:00.891Z,99921.19
2018-11-20T21:25:01.906Z,99919.70
2018-11-20T21:27:52.641Z,99919.01
2018-11-20T21:30:50.870Z,99921.75
2018-11-20T21:33:38.837Z,99913.30
2018-11-20T21:36:28.208Z,99917.06
2018-11-20T21:39:23.261Z,99916.52
2018-11-20T21:42:09.492Z,99919.14
2018-11-20T21:45:04.676Z,99915.95
2018-11-20T21:48:09.137Z,99928.42
2018-11-20T21:50:56.676Z,99932.86
2018-11-20T21:53:48.270Z,99925.63
2018-11-20T21:56:36.117Z,99925.63
2018-11-20T21:59:40.153Z,99913.88
2018-11-20T22:02:23.294Z,99916.86
2018-11-20T22:05:05.532Z,99906.92
2018-11-20T22:07:46.203Z,99923.55
2018-11-20T22:10:33.939Z,99929.57
2018-11-20T22:13:21.519Z,99929.75
2018-11-20T22:16:22.739Z,99931.92
2018-11-20T22:19:24.104Z,99923.65
2018-11-20T22:22:25.133Z,99919.59
2018-11-20T22:25:13.008Z,99913.12
2018-11-20T22:28:00.754Z,99926.94
2018-11-20T22:30:39.628Z,99933.69
2018-11-20T22:33:32.099Z,99940.94
2018-11-20T22:36:27.382Z,99944.78
2018-11-20T22:39:15.660Z,99943.29
2018-11-20T22:42:03.297Z,99946.96
2018-11-20T22:45:10.518Z,99946.38
2018-11-20T22:47:58.197Z,99954.66
2018-11-20T22:50:47.565Z,99957.66
2018-11-20T22:53:39.822Z,99956.34
2018-11-20T22:56:38.199Z,99959.95
2018-11-20T22:59:18.279Z,99953.92
2018-11-20T23:02:05.831Z,99955.31
2018-11-20T23:05:08.156Z,99952.70
2018-11-20T23:07:52.379Z,99958.25
2018-11-20T23:10:24.144Z,99952.78
2018-11-20T23:12:55.006Z,99953.99
2018-11-20T23:15:25.646Z,99963.13
2018-11-20T23:17:56.341Z,99959.56
2018-11-20T23:20:26.986Z,99960.88
2018-11-20T23:22:57.643Z,99966.88
2018-11-20T23:25:28.349Z,99967.36
2018-11-20T23:27:59.006Z,99951.56
2018-11-20T23:30:29.655Z,99959.18
2018-11-20T23:33:00.337Z,99961.61
2018-11-20T23:35:30.972Z,99953.34
2018-11-20T23:38:01.620Z,99947.72
2018-11-20T23:40:32.311Z,99951.08
2018-11-20T23:43:02.957Z,99952.32
2018-11-20T23:45:33.595Z,99948.27
2018-11-20T23:48:04.288Z,99948.93
2018-11-20T23:50:34.934Z,99946.69
2018-11-20T23:53:05.572Z,99950.63
2018-11-20T23:55:36.361Z,99956.55
2018-11-20T23:58:07.022Z,99960.22
